Time;durP1;ratioP1;P1;durP2;ratioP2;P2;SDS_P1;SDS_P2;PMS_P1;PMS_P2;Temp;Humidity;BMP_temperature;BMP_pressure;BME280_temperature;BME280_humidity;BME280_pressure;Samples;Min_cycle;Max_cycle;Signal;HPM_P1;HPM_P2
2023/04/22 00:01:04;;;;;;;6.80;4.50;;;;;;;15.98;47.57;97406.34;8281371;28;20234;-68
2023/04/22 00:05:08;;;;;;;6.93;4.60;;;;;;;15.61;47.94;97376.88;8281287;28;20231;-68
2023/04/22 00:09:15;;;;;;;6.97;4.40;;;;;;;16.01;47.23;97405.25;8281368;28;20256;-69
2023/04/22 00:13:18;;;;;;;7.23;4.37;;;;;;;16.03;47.21;97412.06;8281172;28;20511;-69
2023/04/22 00:17:21;;;;;;;4.57;4.17;;;;;;;16.01;47.13;97421.78;8280905;28;20230;-69
2023/04/22 00:21:23;;;;;;;5.40;3.90;;;;;;;16.00;46.99;97407.06;8280797;28;20543;-69
2023/04/22 00:25:28;;;;;;;4.20;3.80;;;;;;;15.96;47.13;97413.47;8280503;28;20238;-69
2023/04/22 00:29:30;;;;;;;4.87;3.97;;;;;;;15.83;48.10;97405.69;8280677;28;20242;-69
2023/04/22 00:33:33;;;;;;;5.90;4.40;;;;;;;15.94;48.57;97415.34;8280229;28;20236;-69
2023/04/22 00:37:38;;;;;;;4.37;4.07;;;;;;;15.93;48.15;97412.84;8280789;28;20258;-68
2023/04/22 00:41:43;;;;;;;4.30;3.97;;;;;;;15.83;48.18;97402.28;8280346;28;20299;-69
2023/04/22 00:45:46;;;;;;;5.50;4.07;;;;;;;15.83;48.36;97397.88;8280532;28;20239;-69
2023/04/22 00:49:49;;;;;;;4.73;4.27;;;;;;;15.89;48.53;97412.25;8280446;28;20231;-68
2023/04/22 00:53:52;;;;;;;5.17;4.23;;;;;;;15.79;48.62;97406.88;8280704;28;20227;-69
2023/04/22 00:57:56;;;;;;;6.00;4.23;;;;;;;15.67;48.27;97399.09;8280383;28;20232;-69
2023/04/22 01:02:00;;;;;;;5.00;4.50;;;;;;;15.70;48.41;97404.09;8280051;28;20238;-69
2023/04/22 01:06:02;;;;;;;7.63;4.10;;;;;;;15.56;48.85;97382.47;8280030;28;20433;-69
2023/04/22 01:10:09;;;;;;;5.17;4.77;;;;;;;15.69;49.20;97410.25;8280006;28;20426;-68
2023/04/22 01:14:13;;;;;;;5.90;4.70;;;;;;;15.52;49.16;97401.91;8279974;28;20404;-69
2023/04/22 01:18:16;;;;;;;5.60;4.50;;;;;;;15.54;49.48;97407.84;8279262;28;20230;-69
2023/04/22 01:22:19;;;;;;;5.23;4.40;;;;;;;15.57;49.17;97410.22;8282801;28;20231;-69
2023/04/22 01:26:23;;;;;;;5.27;4.50;;;;;;;15.21;49.63;97406.75;8286059;28;20231;-69
2023/04/22 01:30:26;;;;;;;6.83;4.70;;;;;;;15.34;49.13;97391.00;8285981;28;20243;-69
2023/04/22 01:34:30;;;;;;;5.60;4.90;;;;;;;15.36;48.99;97378.69;8285061;28;20235;-69
2023/04/22 01:38:33;;;;;;;6.10;4.87;;;;;;;15.38;49.28;97402.06;8285574;28;20247;-68
2023/04/22 01:42:40;;;;;;;5.10;4.60;;;;;;;15.40;49.11;97402.78;8285199;28;20615;-69
2023/04/22 01:46:43;;;;;;;5.97;4.80;;;;;;;15.44;49.36;97409.47;8285293;28;20518;-69
2023/04/22 01:50:46;;;;;;;5.53;4.60;;;;;;;15.41;49.68;97410.50;8285454;28;20227;-69
2023/04/22 01:54:48;;;;;;;5.43;4.90;;;;;;;15.38;49.31;97409.88;8285139;28;20538;-69
2023/04/22 01:58:52;;;;;;;6.10;4.70;;;;;;;15.39;49.41;97409.78;8285017;28;20457;-69
2023/04/22 02:02:55;;;;;;;5.50;4.60;;;;;;;15.33;49.54;97409.41;8284957;28;20230;-69
2023/04/22 02:06:58;;;;;;;6.87;4.87;;;;;;;15.37;49.07;97410.84;8284956;28;20231;-69
2023/04/22 02:11:01;;;;;;;6.80;4.80;;;;;;;15.39;49.16;97415.00;8284850;28;20233;-68
2023/04/22 02:15:10;;;;;;;5.20;4.43;;;;;;;15.36;49.03;97412.59;8285063;28;20415;-68
2023/04/22 02:19:13;;;;;;;5.17;4.60;;;;;;;15.37;49.26;97427.34;8284543;28;20518;-70
2023/04/22 02:23:16;;;;;;;7.27;5.00;;;;;;;15.25;49.79;97431.66;8283836;28;20520;-68
2023/04/22 02:27:21;;;;;;;5.57;5.07;;;;;;;15.12;50.31;97420.44;8283637;28;20237;-69
2023/04/22 02:31:27;;;;;;;6.57;5.47;;;;;;;15.23;50.37;97436.16;8283515;28;20229;-69
2023/04/22 02:35:31;;;;;;;5.53;5.03;;;;;;;15.22;49.94;97433.66;8284069;28;20243;-68
2023/04/22 02:39:34;;;;;;;6.13;5.30;;;;;;;15.17;50.28;97434.00;8283933;28;20243;-69
2023/04/22 02:43:44;;;;;;;6.27;5.33;;;;;;;14.95;49.92;97395.56;8283714;28;20311;-68
2023/04/22 02:47:48;;;;;;;5.77;4.83;;;;;;;15.14;50.17;97434.19;8283904;28;20234;-69
2023/04/22 02:51:51;;;;;;;6.77;4.77;;;;;;;15.20;49.84;97438.16;8284039;28;20230;-68
2023/04/22 02:55:54;;;;;;;7.93;5.53;;;;;;;15.09;50.27;97438.06;8284005;28;20234;-69
2023/04/22 02:59:57;;;;;;;5.57;5.03;;;;;;;15.03;50.29;97421.91;8283778;28;20226;-69
2023/04/22 03:04:02;;;;;;;9.13;5.37;;;;;;;15.08;50.31;97424.22;8282894;28;20230;-69
2023/04/22 03:08:05;;;;;;;5.93;4.97;;;;;;;15.08;50.74;97431.19;8283788;28;20233;-68
2023/04/22 03:12:08;;;;;;;8.03;5.10;;;;;;;15.01;49.84;97430.81;8283598;28;20231;-69
2023/04/22 03:16:10;;;;;;;6.87;4.90;;;;;;;15.04;50.61;97430.56;8283220;28;20540;-68
2023/04/22 03:20:15;;;;;;;5.97;4.70;;;;;;;15.07;50.57;97422.53;8283430;28;20230;-68
2023/04/22 03:24:18;;;;;;;6.77;5.17;;;;;;;15.04;49.75;97418.38;8282503;28;20246;-69
2023/04/22 03:28:21;;;;;;;6.47;4.70;;;;;;;14.94;49.94;97408.69;8282857;28;20302;-69
2023/04/22 03:32:23;;;;;;;5.57;4.60;;;;;;;15.02;49.31;97424.63;8282770;28;20248;-69
2023/04/22 03:36:28;;;;;;;6.37;4.63;;;;;;;14.93;49.67;97417.47;8282739;28;20237;-70
2023/04/22 03:40:31;;;;;;;5.47;4.87;;;;;;;14.76;50.06;97411.66;8282431;28;20231;-69
2023/04/22 03:44:33;;;;;;;6.00;5.20;;;;;;;14.78;50.56;97408.97;8281566;28;20231;-69
2023/04/22 03:48:36;;;;;;;9.53;5.57;;;;;;;14.81;50.53;97420.00;8282309;28;20242;-69
2023/04/22 03:52:42;;;;;;;6.77;5.00;;;;;;;14.82;49.89;97415.63;8281993;28;20230;-69
2023/04/22 03:56:45;;;;;;;6.40;5.30;;;;;;;14.74;50.07;97420.56;8282031;28;20398;-69
2023/04/22 04:00:50;;;;;;;6.60;5.17;;;;;;;14.62;50.46;97412.66;8281954;28;20234;-69
2023/04/22 04:04:53;;;;;;;8.67;5.27;;;;;;;14.73;49.61;97408.44;8281207;28;20241;-68
2023/04/22 04:08:57;;;;;;;6.30;4.97;;;;;;;14.53;49.67;97381.97;8281805;28;20233;-69
2023/04/22 04:13:00;;;;;;;5.33;4.30;;;;;;;14.53;49.88;97407.22;8281279;28;20229;-68
2023/04/22 04:17:03;;;;;;;5.53;4.97;;;;;;;14.61;49.67;97407.53;8281644;28;20233;-69
2023/04/22 04:21:06;;;;;;;9.37;4.97;;;;;;;14.53;49.88;97402.00;8281708;28;20230;-69
2023/04/22 04:25:11;;;;;;;5.10;4.57;;;;;;;14.19;51.21;97406.91;8281048;28;20238;-69
2023/04/22 04:29:19;;;;;;;5.30;4.80;;;;;;;14.56;49.72;97407.81;8281452;28;20493;-69
2023/04/22 04:33:22;;;;;;;6.63;4.60;;;;;;;14.50;49.90;97400.41;8280658;28;20240;-69
2023/04/22 04:37:25;;;;;;;7.50;4.93;;;;;;;14.64;49.85;97407.31;8281032;28;20284;-69
2023/04/22 04:41:30;;;;;;;5.60;5.10;;;;;;;14.71;49.37;97403.34;8281160;28;20231;-68
2023/04/22 04:45:35;;;;;;;5.77;5.03;;;;;;;14.60;49.36;97417.13;8280926;28;20559;-69
2023/04/22 04:49:39;;;;;;;6.23;5.03;;;;;;;14.72;49.52;97417.22;8280983;28;20261;-69
2023/04/22 04:53:42;;;;;;;7.10;4.70;;;;;;;14.61;49.45;97390.13;8280819;28;20238;-69
2023/04/22 04:57:47;;;;;;;7.73;4.60;;;;;;;14.88;48.87;97416.97;8286749;28;20279;-69
2023/04/22 05:01:50;;;;;;;6.50;4.30;;;;;;;14.94;48.47;97419.13;8287535;28;20236;-69
2023/04/22 05:05:53;;;;;;;4.83;4.33;;;;;;;14.95;48.30;97418.22;8287145;28;20242;-69
2023/04/22 05:09:56;;;;;;;6.43;4.93;;;;;;;14.75;48.76;97432.63;8287169;28;20301;-69
2023/04/22 05:14:03;;;;;;;8.50;4.70;;;;;;;14.88;48.50;97427.41;8286715;28;20517;-69
2023/04/22 05:18:05;;;;;;;6.87;4.57;;;;;;;14.83;48.11;97438.13;8287041;28;20231;-69
2023/04/22 05:22:08;;;;;;;5.50;4.80;;;;;;;14.95;48.03;97445.09;8287040;28;20522;-69
2023/04/22 05:26:11;;;;;;;5.20;4.27;;;;;;;14.92;47.57;97434.06;8286776;28;20242;-69
2023/04/22 05:30:15;;;;;;;4.97;4.33;;;;;;;15.25;47.26;97446.50;8286450;28;20248;-69
2023/04/22 05:34:18;;;;;;;9.70;4.97;;;;;;;15.35;46.85;97446.66;8286059;28;20229;-69
2023/04/22 05:38:21;;;;;;;6.20;4.57;;;;;;;15.40;46.43;97453.22;8284820;28;20233;-69
2023/04/22 05:42:24;;;;;;;7.13;4.33;;;;;;;15.25;45.59;97392.53;8286361;28;20234;-69
2023/04/22 05:46:28;;;;;;;8.00;4.67;;;;;;;15.26;46.40;97448.13;8286072;28;20246;-69
2023/04/22 05:50:32;;;;;;;4.67;3.70;;;;;;;15.96;45.10;97457.84;8286004;28;20435;-68
2023/04/22 05:54:34;;;;;;;5.57;4.20;;;;;;;16.14;44.93;97446.97;8285902;28;20458;-68
2023/04/22 05:58:37;;;;;;;4.63;4.10;;;;;;;16.16;45.11;97463.34;8285849;28;20257;-68
2023/04/22 06:02:41;;;;;;;4.30;3.80;;;;;;;16.36;44.02;97464.47;8285064;28;20565;-69
2023/04/22 06:06:44;;;;;;;5.67;4.40;;;;;;;16.76;43.23;97437.91;8284862;28;20238;-68
2023/04/22 06:10:47;;;;;;;7.47;4.90;;;;;;;16.73;42.76;97459.84;8285447;28;20382;-70
2023/04/22 06:14:50;;;;;;;2.63;2.30;;;;;;;17.32;59.08;97440.44;8285352;28;20251;-69
2023/04/22 06:18:54;;;;;;;3.90;2.57;;;;;;;19.00;53.56;97454.53;8285162;28;20243;-69
2023/04/22 06:22:57;;;;;;;4.57;2.93;;;;;;;19.31;49.40;97382.63;8284897;28;20426;-69
2023/04/22 06:27:01;;;;;;;5.30;4.50;;;;;;;18.64;38.65;97454.94;8284522;28;20405;-70
2023/04/22 06:31:04;;;;;;;5.60;4.37;;;;;;;18.22;39.99;97456.75;8284830;28;20237;-71
2023/04/22 06:35:09;;;;;;;6.13;4.07;;;;;;;18.65;39.44;97467.06;8284799;28;20226;-71
2023/04/22 06:39:12;;;;;;;6.20;4.10;;;;;;;17.80;40.79;97460.19;8284521;28;20234;-72
2023/04/22 06:43:14;;;;;;;8.73;4.40;;;;;;;18.17;39.47;97447.50;8284430;28;20223;-71
2023/04/22 06:47:17;;;;;;;5.90;4.40;;;;;;;18.72;39.33;97456.91;8283906;28;20223;-72
2023/04/22 06:51:21;;;;;;;6.20;4.23;;;;;;;18.29;38.49;97458.72;8284434;28;20229;-73
2023/04/22 06:55:24;;;;;;;9.13;4.70;;;;;;;18.64;38.89;97454.09;8284146;28;20234;-71
2023/04/22 06:59:27;;;;;;;4.77;3.50;;;;;;;19.14;45.84;97444.50;8284137;28;20237;-71
2023/04/22 07:03:30;;;;;;;6.93;4.13;;;;;;;19.46;42.25;97443.47;8283626;28;20457;-70
2023/04/22 07:07:35;;;;;;;6.03;3.63;;;;;;;19.66;43.17;97446.09;8283643;28;20278;-70
2023/04/22 07:11:37;;;;;;;7.83;4.63;;;;;;;19.34;39.84;97439.28;8283281;28;20429;-69
2023/04/22 07:15:40;;;;;;;9.07;4.13;;;;;;;19.10;38.07;97442.28;8283281;28;20236;-72
2023/04/22 07:19:43;;;;;;;9.33;4.40;;;;;;;18.95;37.96;97445.28;8282351;28;20222;-71
2023/04/22 07:23:47;;;;;;;7.57;4.50;;;;;;;19.28;36.82;97440.66;8283006;28;20227;-71
2023/04/22 07:27:50;;;;;;;8.70;4.30;;;;;;;18.45;39.02;97429.44;8283114;28;20227;-71
2023/04/22 07:31:53;;;;;;;5.70;4.30;;;;;;;18.49;38.89;97443.97;8282941;28;20387;-70
2023/04/22 07:35:56;;;;;;;9.43;5.17;;;;;;;18.63;38.35;97434.91;8282569;28;20227;-70
2023/04/22 07:40:00;;;;;;;6.37;4.20;;;;;;;18.99;37.87;97426.66;8282364;28;20269;-70
2023/04/22 07:44:03;;;;;;;4.87;3.73;;;;;;;19.83;36.82;97427.03;8282436;28;20298;-70
2023/04/22 07:48:09;;;;;;;6.53;3.77;;;;;;;19.80;36.36;97442.25;8282565;28;20227;-70
2023/04/22 07:52:12;;;;;;;5.50;3.93;;;;;;;20.19;35.61;97442.22;8282421;28;20230;-70
2023/04/22 07:56:16;;;;;;;4.60;3.80;;;;;;;20.23;35.97;97435.72;8282090;28;20237;-71
2023/04/22 08:00:19;;;;;;;5.90;3.77;;;;;;;20.85;34.95;97436.91;8281732;28;20306;-71
2023/04/22 08:04:24;;;;;;;8.77;4.30;;;;;;;20.41;34.81;97444.53;8281568;28;20258;-71
2023/04/22 08:08:28;;;;;;;5.17;3.73;;;;;;;20.89;34.73;97434.81;8281778;28;20240;-71
2023/04/22 08:12:33;;;;;;;4.57;4.10;;;;;;;20.62;34.33;97432.97;8281224;28;20306;-70
2023/04/22 08:16:36;;;;;;;4.93;3.33;;;;;;;20.97;33.65;97439.34;8281384;28;20250;-71
2023/04/22 08:20:39;;;;;;;7.53;4.30;;;;;;;21.27;33.51;97439.03;8281305;28;20242;-71
2023/04/22 08:24:42;;;;;;;4.73;3.57;;;;;;;21.60;33.83;97430.69;8281431;28;20246;-71
2023/04/22 08:28:46;;;;;;;4.47;3.43;;;;;;;21.62;34.03;97428.72;8281170;28;20506;-71
2023/04/22 08:32:51;;;;;;;5.87;4.10;;;;;;;22.73;32.89;97433.47;8280821;28;20222;-70
2023/04/22 08:36:54;;;;;;;5.93;3.43;;;;;;;23.05;31.09;97430.16;8281289;28;20540;-71
2023/04/22 08:40:57;;;;;;;5.17;3.30;;;;;;;23.17;32.28;97428.06;8281236;28;20231;-71
2023/04/22 08:45:02;;;;;;;5.03;3.30;;;;;;;23.32;30.89;97423.84;8280731;28;20235;-71
2023/04/22 08:49:05;;;;;;;7.00;3.43;;;;;;;24.02;30.00;97434.97;8280952;28;20224;-71
2023/04/22 08:53:08;;;;;;;4.57;3.30;;;;;;;23.66;30.59;97417.59;8281066;28;20412;-71
2023/04/22 08:57:12;;;;;;;4.67;3.43;;;;;;;23.57;29.59;97413.28;8281073;28;20565;-71
2023/04/22 09:01:17;;;;;;;4.93;3.17;;;;;;;22.34;31.65;97403.09;8280841;28;20246;-71
2023/04/22 09:05:21;;;;;;;5.83;3.50;;;;;;;22.84;31.56;97389.13;8280114;28;20245;-71
2023/04/22 09:09:24;;;;;;;5.63;3.90;;;;;;;22.58;31.38;97394.50;8280992;28;20240;-71
2023/04/22 09:13:29;;;;;;;5.40;3.00;;;;;;;22.88;31.12;97386.19;8280832;28;20238;-71
2023/04/22 09:17:37;;;;;;;7.03;3.47;;;;;;;22.15;31.87;97385.63;8280814;28;20231;-71
2023/04/22 09:21:40;;;;;;;5.30;3.23;;;;;;;22.50;32.46;97394.44;8280831;28;20239;-71
2023/04/22 09:25:45;;;;;;;5.27;3.17;;;;;;;22.92;32.05;97384.88;8280625;28;20250;-70
2023/04/22 09:29:48;;;;;;;4.20;2.97;;;;;;;22.73;32.83;97389.44;8280433;28;20238;-70
2023/04/22 09:33:55;;;;;;;4.37;2.87;;;;;;;22.79;31.87;97388.81;8280606;28;20250;-70
2023/04/22 09:37:58;;;;;;;3.43;3.10;;;;;;;23.49;31.54;97386.84;8280378;28;20298;-69
2023/04/22 09:42:01;;;;;;;6.00;3.30;;;;;;;22.42;32.73;97389.94;8281068;28;20270;-68
2023/04/22 09:46:06;;;;;;;4.57;2.93;;;;;;;23.32;31.09;97384.22;8285470;28;20223;-68
2023/04/22 09:50:12;;;;;;;5.80;3.60;;;;;;;23.19;31.56;97381.22;8285392;28;20235;-68
2023/04/22 09:54:14;;;;;;;3.53;3.00;;;;;;;22.68;31.50;97380.34;8285336;28;20546;-68
2023/04/22 09:58:18;;;;;;;4.60;3.00;;;;;;;23.33;31.53;97367.34;8284456;28;20226;-70
2023/04/22 10:02:29;;;;;;;5.57;3.03;;;;;;;23.19;30.96;97378.56;8284666;28;20223;-67
2023/04/22 10:06:33;;;;;;;3.40;3.10;;;;;;;23.52;30.56;97360.94;8284374;28;20246;-68
2023/04/22 10:10:37;;;;;;;3.43;2.90;;;;;;;24.10;29.81;97367.03;8284625;28;20231;-68
2023/04/22 10:14:39;;;;;;;4.07;2.77;;;;;;;24.50;28.75;97356.50;8284486;28;20242;-69
2023/04/22 10:18:47;;;;;;;4.30;3.63;;;;;;;24.37;29.56;97351.78;8284037;28;20233;-70
2023/04/22 10:22:53;;;;;;;3.03;2.80;;;;;;;25.15;28.37;97350.09;8283802;28;20310;-72
2023/04/22 10:26:58;;;;;;;3.73;2.57;;;;;;;25.58;28.10;97347.03;8284131;28;20419;-69
2023/04/22 10:31:06;;;;;;;4.00;2.80;;;;;;;24.22;28.45;97358.72;8283101;28;20307;-66
2023/04/22 10:35:11;;;;;;;2.90;2.60;;;;;;;23.30;29.56;97343.88;8283868;28;20231;-67
2023/04/22 10:39:20;;;;;;;4.90;2.60;;;;;;;23.54;29.62;97329.06;8283313;28;20232;-67
2023/04/22 10:43:40;;;;;;;2.70;2.50;;;;;;;24.47;28.29;97330.41;8283495;28;20466;-69
2023/04/22 10:47:43;;;;;;;3.10;2.50;;;;;;;24.39;28.27;97308.25;8283962;28;20242;-69
2023/04/22 10:51:50;;;;;;;3.87;2.60;;;;;;;25.02;28.14;97310.09;8283033;28;20295;-69
2023/04/22 10:55:55;;;;;;;3.03;2.23;;;;;;;24.78;27.36;97310.09;8283140;28;20307;-69
2023/04/22 10:59:59;;;;;;;3.57;2.30;;;;;;;25.54;25.66;97307.59;8283426;28;20238;-69
2023/04/22 11:04:19;;;;;;;1.70;1.60;;;;;;;25.59;25.62;97304.44;8283030;28;20245;-69
2023/04/22 11:08:28;;;;;;;2.23;2.10;;;;;;;25.20;25.57;97312.50;8282639;28;20293;-69
2023/04/22 11:12:43;;;;;;;3.67;2.60;;;;;;;25.86;25.56;97318.09;8282770;28;20227;-69
2023/04/22 11:16:47;;;;;;;2.90;2.60;;;;;;;25.87;25.05;97312.59;8283044;28;20234;-69
2023/04/22 11:20:51;;;;;;;4.23;3.83;;;;;;;25.17;26.16;97317.13;8282817;28;20234;-69
2023/04/22 11:24:57;;;;;;;2.33;2.13;;;;;;;26.44;24.30;97308.53;8282583;28;20227;-69
2023/04/22 11:29:02;;;;;;;2.77;2.00;;;;;;;26.40;24.67;97295.81;8282717;28;20223;-69
2023/04/22 11:33:05;;;;;;;1.40;1.40;;;;;;;25.04;23.86;97300.19;8282524;28;20234;-69
2023/04/22 11:37:14;;;;;;;2.20;1.40;;;;;;;25.89;23.59;97296.50;8281341;28;20247;-70
2023/04/22 11:41:21;;;;;;;1.63;1.47;;;;;;;26.18;23.97;97277.19;8281408;28;20330;-70
2023/04/22 11:45:27;;;;;;;1.60;1.50;;;;;;;26.90;23.30;97289.72;8281033;28;20239;-70
2023/04/22 11:49:31;;;;;;;1.40;1.30;;;;;;;27.41;22.59;97285.31;8281254;28;20231;-70
2023/04/22 11:53:34;;;;;;;2.88;1.35;;;;;;;26.47;22.98;97286.94;8280101;28;20393;-70
2023/04/22 11:57:37;;;;;;;10.98;2.22;;;;;;;26.45;23.60;97291.59;8280701;28;20701;-70
2023/04/22 12:01:43;;;;;;;2.85;1.40;;;;;;;26.53;22.16;97270.25;8280687;28;20231;-69
2023/04/22 12:05:48;;;;;;;10.40;1.80;;;;;;;26.10;23.01;97275.44;8279627;28;20534;-69
2023/04/22 12:09:53;;;;;;;2.05;1.50;;;;;;;25.75;23.75;97277.75;8280301;28;20227;-69
2023/04/22 12:13:56;;;;;;;2.20;1.70;;;;;;;24.85;24.47;97269.69;8280343;28;20226;-69
2023/04/22 12:18:01;;;;;;;5.25;1.55;;;;;;;25.28;24.50;97270.88;8280167;28;20321;-69
2023/04/22 12:22:07;;;;;;;2.53;1.60;;;;;;;25.50;24.74;97261.25;8279868;28;20226;-69
2023/04/22 12:26:10;;;;;;;1.63;1.53;;;;;;;25.68;24.70;97266.25;8279678;28;20231;-69
2023/04/22 12:30:15;;;;;;;2.37;1.60;;;;;;;25.85;25.08;97250.97;8279693;28;20239;-68
2023/04/22 12:34:19;;;;;;;3.43;1.50;;;;;;;25.53;24.22;97257.41;8279291;28;20223;-69
2023/04/22 12:38:22;;;;;;;4.17;1.63;;;;;;;25.10;24.59;97236.72;8279183;28;20301;-68
2023/04/22 12:42:24;;;;;;;1.70;1.60;;;;;;;24.22;25.55;97165.63;8279662;28;20231;-68
2023/04/22 12:46:27;;;;;;;1.87;1.63;;;;;;;24.77;26.21;97249.38;8279422;28;20526;-69
2023/04/22 12:50:31;;;;;;;1.50;1.40;;;;;;;24.39;26.69;97243.94;8279757;28;20234;-68
2023/04/22 12:54:34;;;;;;;2.37;1.70;;;;;;;24.81;26.49;97249.84;8278848;28;20226;-69
2023/04/22 12:58:37;;;;;;;3.10;1.57;;;;;;;25.39;25.09;97184.00;8279444;28;20231;-69
2023/04/22 13:02:41;;;;;;;1.90;1.53;;;;;;;25.61;24.71;97240.59;8279198;28;20227;-68
2023/04/22 13:06:46;;;;;;;4.17;1.60;;;;;;;25.64;25.30;97233.13;8278933;28;20235;-69
2023/04/22 13:10:51;;;;;;;4.60;2.10;;;;;;;26.05;25.22;97229.25;8279519;28;20234;-70
2023/04/22 13:14:58;;;;;;;2.67;1.87;;;;;;;26.28;25.04;97221.16;8276655;28;20227;-68
2023/04/22 13:19:03;;;;;;;2.33;1.77;;;;;;;25.86;25.68;97222.63;8283828;28;20231;-69
2023/04/22 13:23:08;;;;;;;2.00;1.80;;;;;;;26.49;24.59;97213.22;8283966;28;20241;-68
2023/04/22 13:27:12;;;;;;;4.10;2.00;;;;;;;26.06;25.57;97205.16;8284713;28;20313;-70
2023/04/22 13:31:16;;;;;;;2.20;1.70;;;;;;;25.68;25.42;97202.59;8285542;28;20235;-69
2023/04/22 13:35:18;;;;;;;2.03;1.85;;;;;;;26.09;24.86;97204.81;8284238;28;20230;-71
2023/04/22 13:39:24;;;;;;;2.00;1.90;;;;;;;26.42;24.22;97201.72;8283515;28;20235;-69
2023/04/22 13:43:27;;;;;;;1.77;1.67;;;;;;;27.07;24.49;97191.13;8284437;28;20242;-67
2023/04/22 13:47:31;;;;;;;3.28;1.70;;;;;;;27.26;23.37;97190.53;8264128;28;20238;-69
2023/04/22 13:51:36;;;;;;;1.90;1.75;;;;;;;26.27;25.06;97156.66;8281483;28;20407;-68
2023/04/22 13:55:42;;;;;;;3.08;1.77;;;;;;;26.37;23.92;97185.56;8284277;28;20227;-66
2023/04/22 13:59:45;;;;;;;1.40;1.30;;;;;;;26.30;22.25;97160.75;8284388;28;20433;-69
2023/04/22 14:03:48;;;;;;;1.45;1.35;;;;;;;26.90;21.77;97185.28;8284172;28;20227;-68
2023/04/22 14:07:52;;;;;;;1.63;1.25;;;;;;;26.49;22.18;97178.72;8284338;28;20231;-68
2023/04/22 14:11:56;;;;;;;1.88;1.30;;;;;;;26.66;21.94;97179.34;8283452;28;20580;-67
2023/04/22 14:16:00;;;;;;;1.70;1.45;;;;;;;26.45;21.78;97174.00;8279686;28;20388;-68
2023/04/22 14:20:04;;;;;;;2.08;1.67;;;;;;;26.62;22.07;97170.13;8283501;28;20234;-68
2023/04/22 14:24:07;;;;;;;1.83;1.73;;;;;;;26.28;22.81;97170.75;8282536;28;20295;-68
2023/04/22 14:28:11;;;;;;;3.40;1.60;;;;;;;26.56;22.98;97170.84;8282458;28;20231;-68
2023/04/22 14:32:15;;;;;;;1.60;1.50;;;;;;;26.64;22.81;97170.75;8283046;28;20242;-68
2023/04/22 14:36:20;;;;;;;5.25;2.22;;;;;;;26.24;23.44;97170.28;8282546;28;20231;-68
2023/04/22 14:40:26;;;;;;;1.70;1.60;;;;;;;26.52;23.45;97167.75;8283013;28;20235;-69
2023/04/22 14:44:32;;;;;;;3.35;1.73;;;;;;;25.65;24.70;97154.44;8282250;28;20255;-68
2023/04/22 14:48:38;;;;;;;2.75;1.90;;;;;;;24.96;25.67;97156.22;8281734;28;20258;-67
2023/04/22 14:52:41;;;;;;;1.92;1.70;;;;;;;26.02;24.52;97156.13;8282166;28;20227;-67
2023/04/22 14:56:44;;;;;;;2.25;2.00;;;;;;;26.27;24.57;97154.00;8281933;28;20269;-68
2023/04/22 15:00:48;;;;;;;11.32;2.40;;;;;;;26.21;23.85;97149.41;8282032;28;20242;-67
2023/04/22 15:04:52;;;;;;;14.65;2.50;;;;;;;26.33;23.97;97149.75;8282434;28;20235;-68
2023/04/22 15:08:57;;;;;;;2.38;2.00;;;;;;;26.37;24.08;97148.38;8281941;28;20316;-68
2023/04/22 15:13:00;;;;;;;2.20;1.40;;;;;;;26.09;22.17;97124.41;8282210;28;20227;-68
2023/04/22 15:17:05;;;;;;;6.68;2.00;;;;;;;26.10;22.65;97134.84;8281912;28;20227;-68
2023/04/22 15:21:09;;;;;;;2.63;1.77;;;;;;;25.37;22.95;97147.09;8281618;28;20238;-68
2023/04/22 15:25:13;;;;;;;2.53;1.50;;;;;;;25.40;23.09;97141.44;8281797;28;20227;-68
2023/04/22 15:29:19;;;;;;;4.47;1.60;;;;;;;24.97;23.85;97149.09;8281376;28;20549;-69
2023/04/22 15:33:24;;;;;;;6.10;1.87;;;;;;;24.73;24.42;97147.47;8281410;28;20223;-68
2023/04/22 15:37:29;;;;;;;3.20;1.83;;;;;;;24.49;23.90;97143.97;8281907;28;20239;-68
2023/04/22 15:41:32;;;;;;;3.40;1.37;;;;;;;24.29;23.79;97126.91;8281277;28;20223;-68
2023/04/22 15:45:35;;;;;;;6.37;2.00;;;;;;;24.49;24.45;97143.16;8281520;28;20230;-68
2023/04/22 15:49:41;;;;;;;1.93;1.50;;;;;;;24.21;24.87;97146.28;8280861;28;20234;-68
2023/04/22 15:53:45;;;;;;;2.73;1.40;;;;;;;24.28;25.35;97141.97;8281741;28;20234;-69
2023/04/22 15:57:47;;;;;;;2.60;1.53;;;;;;;24.10;25.34;97149.34;8281409;28;20230;-68
2023/04/22 16:01:50;;;;;;;2.07;1.50;;;;;;;24.05;25.73;97149.03;8281147;28;20227;-68
2023/04/22 16:05:55;;;;;;;3.10;1.70;;;;;;;24.30;24.98;97139.16;8279001;28;20406;-68
2023/04/22 16:09:58;;;;;;;2.17;2.00;;;;;;;23.77;26.08;97129.13;8280818;28;20238;-69
2023/04/22 16:14:01;;;;;;;2.00;1.80;;;;;;;23.83;26.67;97153.25;8280784;28;20421;-69
2023/04/22 16:18:04;;;;;;;2.47;1.40;;;;;;;23.65;26.99;97143.72;8280629;28;20249;-69
2023/04/22 16:22:11;;;;;;;12.63;1.93;;;;;;;23.61;27.66;97145.88;8280361;28;20553;-69
2023/04/22 16:26:14;;;;;;;1.20;1.10;;;;;;;23.58;27.68;97158.59;8280825;28;20223;-69
2023/04/22 16:30:17;;;;;;;3.97;1.40;;;;;;;23.52;28.72;97156.66;8280107;28;20405;-70
2023/04/22 16:34:20;;;;;;;2.80;1.40;;;;;;;23.41;28.10;97147.25;8280056;28;20238;-69
2023/04/22 16:38:25;;;;;;;2.00;1.80;;;;;;;23.09;28.28;97161.34;8280018;28;20242;-69
2023/04/22 16:42:27;;;;;;;2.10;1.90;;;;;;;23.18;28.88;97161.16;8279714;28;20503;-69
2023/04/22 16:46:30;;;;;;;3.43;1.93;;;;;;;22.94;29.57;97175.19;8279720;28;20230;-69
2023/04/22 16:50:33;;;;;;;3.23;1.70;;;;;;;22.42;31.91;97172.81;8280729;28;20230;-68
2023/04/22 16:54:37;;;;;;;1.83;1.50;;;;;;;22.33;31.99;97158.81;8286855;28;20238;-69
2023/04/22 16:58:41;;;;;;;2.07;1.50;;;;;;;22.47;31.62;97144.16;8287001;28;20406;-69
2023/04/22 17:02:46;;;;;;;3.33;1.80;;;;;;;22.62;31.84;97165.44;8286497;28;20223;-69
2023/04/22 17:06:50;;;;;;;1.70;1.53;;;;;;;22.67;32.70;97157.03;8285906;28;20251;-69
2023/04/22 17:10:54;;;;;;;2.63;2.43;;;;;;;22.44;32.51;97152.38;8286315;28;20297;-69
2023/04/22 17:14:57;;;;;;;2.87;2.60;;;;;;;22.58;32.48;97153.53;8286163;28;20227;-69
2023/04/22 17:18:59;;;;;;;3.83;2.70;;;;;;;22.57;32.68;97155.34;8286066;28;20227;-69
2023/04/22 17:23:03;;;;;;;3.00;2.73;;;;;;;22.54;33.17;97158.34;8285998;28;20237;-69
2023/04/22 17:27:07;;;;;;;3.03;2.50;;;;;;;22.42;33.76;97160.44;8285316;28;20285;-69
2023/04/22 17:31:10;;;;;;;3.43;2.53;;;;;;;22.28;33.80;97131.25;8285675;28;20223;-68
2023/04/22 17:35:13;;;;;;;2.10;1.80;;;;;;;22.29;34.32;97143.44;8285432;28;20226;-68
2023/04/22 17:39:16;;;;;;;3.07;2.00;;;;;;;22.19;34.43;97146.19;8285084;28;20235;-69
2023/04/22 17:43:21;;;;;;;2.37;1.93;;;;;;;22.28;34.63;97150.53;8284314;28;20529;-68
2023/04/22 17:47:23;;;;;;;3.17;2.03;;;;;;;22.28;34.97;97152.38;8284883;28;20243;-68
2023/04/22 17:51:27;;;;;;;4.60;3.03;;;;;;;22.25;34.97;97158.75;8284589;28;20231;-68
2023/04/22 17:55:33;;;;;;;2.83;2.60;;;;;;;22.15;35.70;97148.31;8284686;28;20223;-69
2023/04/22 17:59:37;;;;;;;6.07;2.53;;;;;;;21.90;35.10;97141.34;8284397;28;20522;-68
2023/04/22 18:03:41;;;;;;;2.70;2.00;;;;;;;21.98;34.36;97142.19;8283749;28;20242;-69
2023/04/22 18:07:44;;;;;;;6.63;4.87;;;;;;;21.84;33.78;97150.72;8284453;28;20396;-69
2023/04/22 18:11:47;;;;;;;9.07;8.00;;;;;;;21.85;35.12;97150.53;8283817;28;20227;-69
2023/04/22 18:15:51;;;;;;;5.17;4.40;;;;;;;21.88;35.42;97159.13;8284052;28;20234;-69
2023/04/22 18:19:55;;;;;;;5.47;4.00;;;;;;;21.83;35.44;97151.69;8283949;28;20231;-69
2023/04/22 18:24:17;;;;;;;5.27;3.93;;;;;;;21.80;36.46;97166.00;8283447;28;20249;-69
2023/04/22 18:28:20;;;;;;;8.83;4.97;;;;;;;21.76;36.74;97163.84;8282588;28;20515;-68
2023/04/22 18:32:24;;;;;;;9.57;4.30;;;;;;;21.62;36.86;97154.72;8283407;28;20238;-68
2023/04/22 18:36:29;;;;;;;5.40;3.60;;;;;;;21.62;34.28;97173.16;8283221;28;20242;-67
2023/04/22 18:40:32;;;;;;;2.50;2.30;;;;;;;21.63;34.00;97170.38;8283068;28;20238;-68
2023/04/22 18:44:35;;;;;;;5.20;2.60;;;;;;;21.58;35.79;97169.19;8282478;28;20238;-68
2023/04/22 18:48:39;;;;;;;6.93;5.60;;;;;;;21.58;37.41;97174.47;8282646;28;20387;-68
2023/04/22 18:52:42;;;;;;;13.40;9.33;;;;;;;21.57;37.06;97184.19;8282014;28;20227;-67
2023/04/22 18:56:45;;;;;;;11.03;4.93;;;;;;;21.55;37.10;97183.50;8282375;28;20535;-67
2023/04/22 19:00:48;;;;;;;5.93;3.60;;;;;;;21.50;36.83;97188.41;8281850;28;20230;-68
2023/04/22 19:04:53;;;;;;;3.97;3.57;;;;;;;21.35;37.39;97179.41;8281918;28;20334;-67
2023/04/22 19:08:56;;;;;;;3.77;2.83;;;;;;;21.33;38.31;97199.81;8281967;28;20294;-68